Latest Coastal Weather Observations for Browse Island

IDD60701

Issued at 2:21 pm CST Thursday 26 May 2016 (issued every 10 minutes, with the page automatically refreshed every 10 minutes)

About coastal observations | Map of coastal stations | Coastal observations for NT | Marine services | Other Formats
Station Details ID: 200784 Name: BROWSE ISLAND Lat: -14.11 Lon: 123.55 Height: 3.7 m
Data from the previous 72 hours. | See also: Recent months at Browse Island
Date/Time
CST
Temp

°C
Wind Pressure Rain
since 9am
mm
Weather Cloud Vis
km
Sea
Height
m
Swell
Dir
 
Speed
knots
Gust
knots
hPa Trend Height
m
Period
s
Dir
26/02:00pm 29.7 SSE 6 7 1012.9 - - - - - - - - -
26/01:30pm 29.4 S 5 7 1013.2 - - - - - - - - -
26/01:00pm 29.4 S 5 6 1013.7 - - - - - - - - -
26/12:30pm 29.7 SSE 5 7 1014.2 - - - - - - - - -
26/12:00pm 29.2 SSE 6 8 1014.4 - - - - - - - - -
26/11:30am 29.4 SSE 5 6 1014.7 - - - - - - - - -
26/11:00am 29.2 SSE 5 7 1014.9 - - - - - - - - -
26/10:30am 29.2 SSE 4 6 1015.0 - - - - - - - - -
26/10:00am 29.3 SE 4 6 1014.9 - - - - - - - - -
26/09:30am 28.9 SE 6 8 1014.6 - - - - - - - - -
26/09:00am 28.5 SE 6 8 1014.2 - - - - - - - - -
26/08:30am 28.3 SSE 5 6 1014.1 - - - - - - - - -
26/08:00am 28.2 SE 5 6 1013.8 - - - - - - - - -
26/07:30am 28.1 SE 5 6 1013.3 - - - - - - - - -
26/07:00am 28.1 SE 5 5 1013.3 - - - - - - - - -
26/06:30am 28.1 SSE 5 6 1012.9 - - - - - - - - -
26/06:00am 28.1 SSE 5 6 1012.5 - - - - - - - - -
26/05:30am 28.2 SSE 5 7 1012.4 - - - - - - - - -
26/05:00am 28.1 S 4 7 1012.3 - - - - - - - - -
26/04:30am 28.2 S 3 5 1012.3 - - - - - - - - -
26/04:00am 28.2 SSW 1 5 1012.3 - - - - - - - - -
26/03:30am 28.3 SSW 1 5 1012.5 - - - - - - - - -
26/03:00am 28.3 SSW 3 5 1012.5 - - - - - - - - -
26/02:30am 28.2 CALM 0 3 1012.6 - - - - - - - - -
26/02:00am 28.3 SSW 1 4 1012.8 - - - - - - - - -
26/01:30am 28.4 S 5 6 1012.6 - - - - - - - - -
26/01:00am 28.5 SSE 5 7 1012.7 - - - - - - - - -
26/12:30am 28.3 S 5 6 1012.7 - - - - - - - - -
26/12:00am 28.4 S 4 6 1012.8 - - - - - - - - -
 
Date/Time
CST
Temp

°C
Wind Pressure Rain
since 9am
mm
Weather Cloud Vis
km
Sea
Height
m
Swell
Dir
 
Speed
knots
Gust
knots
hPa Trend Height
m
Period
s
Dir
25/11:30pm 28.4 SSE 5 6 1012.9 - - - - - - - - -
25/11:00pm 28.5 S 4 5 1013.1 - - - - - - - - -
25/10:30pm 28.4 CALM 0 0 1012.9 - - - - - - - - -
25/10:00pm 28.2 CALM 0 0 1012.9 - - - - - - - - -
25/09:30pm 28.4 CALM 0 0 1012.9 - - - - - - - - -
25/09:00pm 28.5 CALM 0 0 1012.6 - - - - - - - - -
25/08:30pm 28.6 CALM 0 0 1012.4 - - - - - - - - -
25/08:00pm 28.6 SSE 1 3 1012.1 - - - - - - - - -
25/07:30pm 28.8 SSE 4 5 1011.8 - - - - - - - - -
25/07:00pm 28.8 SSE 2 4 1011.7 - - - - - - - - -
25/06:30pm 28.8 SSE 2 4 1011.7 - - - - - - - - -
25/06:00pm 29.1 CALM 0 2 1011.4 - - - - - - - - -
25/05:30pm 29.0 CALM 0 3 1011.2 - - - - - - - - -
25/05:00pm 29.2 CALM 0 2 1011.0 - - - - - - - - -
25/04:30pm 29.6 CALM 0 3 1011.2 - - - - - - - - -
25/04:00pm 29.6 E 1 3 1011.1 - - - - - - - - -
25/03:30pm 29.4 SSE 1 4 1011.0 - - - - - - - - -
25/03:00pm 28.7 SSE 3 5 1011.1 - - - - - - - - -
25/02:30pm 29.7 SE 3 5 1011.4 - - - - - - - - -
25/02:00pm 29.4 SSE 4 6 1011.7 - - - - - - - - -
25/01:30pm 29.6 SE 5 7 1012.1 - - - - - - - - -
25/01:00pm 29.9 SE 5 7 1012.5 - - - - - - - - -
25/12:30pm 29.4 SE 6 8 1012.9 - - - - - - - - -
25/12:00pm 29.8 ESE 7 8 1013.0 - - - - - - - - -
25/11:30am 29.2 SE 6 9 1013.3 - - - - - - - - -
25/11:00am 29.1 ESE 6 9 1013.5 - - - - - - - - -
25/10:30am 29.4 ESE 7 9 1013.5 - - - - - - - - -
25/10:00am 28.8 SE 6 9 1013.5 - - - - - - - - -
25/09:30am 28.4 SE 7 9 1013.3 - - - - - - - - -
25/09:00am 28.2 SE 7 9 1013.0 - - - - - - - - -
25/08:30am 28.1 ESE 7 9 1012.9 - - - - - - - - -
25/08:00am 27.8 SE 7 10 1012.7 - - - - - - - - -
25/07:30am 28.1 SE 7 8 1012.5 - - - - - - - - -
25/07:00am 27.9 SE 8 10 1011.9 - - - - - - - - -
25/06:30am 28.0 SSE 6 8 1011.6 - - - - - - - - -
25/06:00am 28.0 S 6 7 1011.5 - - - - - - - - -
25/05:30am 28.0 S 3 6 1011.3 - - - - - - - - -
25/05:00am 28.0 SSE 5 6 1011.3 - - - - - - - - -
25/04:30am 28.1 S 4 6 1011.2 - - - - - - - - -
25/04:00am 28.1 S 2 4 1011.2 - - - - - - - - -
25/03:30am 28.1 S 2 5 1011.5 - - - - - - - - -
25/03:00am 28.2 CALM 0 0 1011.7 - - - - - - - - -
25/02:30am 28.2 CALM 0 3 1011.9 - - - - - - - - -
25/02:00am 28.2 SSE 2 4 1012.2 - - - - - - - - -
25/01:30am 28.0 CALM 0 0 1012.4 - - - - - - - - -
25/01:00am 28.2 CALM 0 0 1012.4 - - - - - - - - -
25/12:30am 28.1 CALM 0 0 1012.5 - - - - - - - - -
25/12:00am 28.2 CALM 0 0 1012.4 - - - - - - - - -
 
Date/Time
CST
Temp

°C
Wind Pressure Rain
since 9am
mm
Weather Cloud Vis
km
Sea
Height
m
Swell
Dir
 
Speed
knots
Gust
knots
hPa Trend Height
m
Period
s
Dir
24/11:30pm 28.1 CALM 0 0 1012.7 - - - - - - - - -
24/11:00pm 28.2 CALM 0 0 1012.9 - - - - - - - - -
24/10:30pm 28.5 CALM 0 0 1013.0 - - - - - - - - -
24/10:00pm 28.5 CALM 0 0 1012.9 - - - - - - - - -
24/09:30pm 28.7 CALM 0 0 1012.8 - - - - - - - - -
24/09:00pm 28.8 ENE 4 6 1012.6 - - - - - - - - -
24/08:30pm 28.8 ENE 5 6 1012.2 - - - - - - - - -
24/08:00pm 28.9 ENE 5 7 1011.8 - - - - - - - - -
24/07:30pm 28.8 NE 4 6 1011.6 - - - - - - - - -
24/07:00pm 28.9 ENE 4 6 1011.5 - - - - - - - - -
24/06:30pm 29.1 NE 4 5 1011.3 - - - - - - - - -
24/06:00pm 29.4 ENE 5 6 1011.0 - - - - - - - - -
24/05:30pm 30.1 ENE 5 7 1010.9 - - - - - - - - -
24/05:00pm 30.2 ENE 5 7 1010.8 - - - - - - - - -
24/04:30pm 29.7 ENE 6 8 1010.9 - - - - - - - - -
24/04:00pm 29.9 ENE 7 9 1011.0 - - - - - - - - -
24/03:30pm 29.7 ENE 8 10 1011.0 - - - - - - - - -
24/03:00pm 29.5 ENE 8 10 1011.1 - - - - - - - - -
24/02:30pm 30.2 ENE 8 9 1011.5 - - - - - - - - -
24/02:00pm 30.4 E 8 11 1011.7 - - - - - - - - -
24/01:30pm 30.2 E 8 10 1012.1 - - - - - - - - -
24/01:00pm 30.4 ENE 8 10 1012.5 - - - - - - - - -
24/12:30pm 30.7 ENE 8 10 1012.7 - - - - - - - - -
24/12:00pm 30.1 ENE 8 11 1013.0 - - - - - - - - -
24/11:30am 30.6 E 8 10 1013.2 - - - - - - - - -
24/11:00am 29.8 E 8 10 1013.3 - - - - - - - - -
24/10:30am 30.2 E 8 10 1013.2 - - - - - - - - -
24/10:00am 29.5 E 8 10 1013.0 - - - - - - - - -
24/09:30am 29.7 E 8 9 1012.9 - - - - - - - - -
24/09:00am 29.2 E 7 8 1013.0 - - - - - - - - -
24/08:30am 28.9 E 9 11 1012.8 - - - - - - - - -
24/08:00am 28.6 E 8 10 1012.6 - - - - - - - - -
24/07:30am 28.3 ESE 8 9 1012.5 - - - - - - - - -
24/07:00am 28.6 ESE 9 10 1012.3 - - - - - - - - -
24/06:30am 28.7 ESE 9 11 1012.3 - - - - - - - - -
24/06:00am 28.6 SE 8 9 1012.1 - - - - - - - - -
24/05:30am 28.6 SE 9 11 1012.1 - - - - - - - - -
24/05:00am 28.5 SSE 8 10 1012.0 - - - - - - - - -
24/04:30am 28.6 SSE 8 11 1011.9 - - - - - - - - -
24/04:00am 28.4 SSE 8 11 1012.0 - - - - - - - - -
24/03:30am 28.5 SSE 10 11 1012.2 - - - - - - - - -
24/03:00am 28.5 SSE 10 13 1012.5 - - - - - - - - -
24/02:30am 28.4 SSE 11 14 1012.8 - - - - - - - - -
24/02:00am 28.6 SSE 11 14 1012.9 - - - - - - - - -
24/01:30am 28.6 SSE 11 13 1013.1 - - - - - - - - -
24/01:00am 28.9 SSE 11 13 1013.3 - - - - - - - - -
24/12:30am 29.1 SSE 9 11 1013.4 - - - - - - - - -
24/12:00am 29.1 SSE 11 13 1013.5 - - - - - - - - -
 
Date/Time
CST
Temp

°C
Wind Pressure Rain
since 9am
mm
Weather Cloud Vis
km
Sea
Height
m
Swell
Dir
 
Speed
knots
Gust
knots
hPa Trend Height
m
Period
s
Dir
23/11:30pm 29.1 S 12 14 1013.4 - - - - - - - - -
23/11:00pm 29.0 SSE 13 16 1013.6 - - - - - - - - -
23/10:30pm 28.9 S 11 14 1013.7 - - - - - - - - -
23/10:00pm 28.7 SSE 12 14 1013.4 - - - - - - - - -
23/09:30pm 28.8 SSE 11 14 1013.1 - - - - - - - - -
23/09:00pm 29.0 S 10 12 1012.7 - - - - - - - - -
23/08:30pm 29.0 S 10 12 1012.3 - - - - - - - - -
23/08:00pm 29.1 S 9 10 1012.0 - - - - - - - - -
23/07:30pm 29.1 S 9 11 1011.6 - - - - - - - - -
23/07:00pm 29.2 S 10 11 1011.4 - - - - - - - - -
23/06:30pm 29.2 SSE 9 11 1011.2 - - - - - - - - -
23/06:00pm 29.2 S 10 11 1011.0 - - - - - - - - -
23/05:30pm 29.2 S 9 11 1010.9 - - - - - - - - -
23/05:00pm 29.3 S 9 11 1010.8 - - - - - - - - -
23/04:30pm 29.4 S 8 11 1010.6 - - - - - - - - -
23/04:00pm 29.9 S 7 9 1010.7 - - - - - - - - -

Other Formats:

Comma delimited format used in spreadsheet applications
http://www.bom.gov.au/fwo/IDD60701/IDD60701.94103.axf

JavaScript Object Notation format (JSON) in row-major order
http://www.bom.gov.au/fwo/IDD60701/IDD60701.94103.json